createdAt,value
2022-12-11T00:00:48.929Z,91882.03
2022-12-11T00:03:19.111Z,91886.31
2022-12-11T00:05:45.975Z,91888.72
2022-12-11T00:08:12.847Z,91882.88
2022-12-11T00:10:39.345Z,91881.38
2022-12-11T00:13:05.784Z,91871.00
2022-12-11T00:15:32.290Z,91859.41
2022-12-11T00:17:58.733Z,91861.34
2022-12-11T00:20:25.280Z,91862.44
2022-12-11T00:22:51.748Z,91862.16
2022-12-11T00:25:18.270Z,91865.31
2022-12-11T00:27:46.324Z,91873.75
2022-12-11T00:30:13.703Z,91867.84
2022-12-11T00:32:40.217Z,91868.91
2022-12-11T00:35:06.869Z,91862.44
2022-12-11T00:37:33.332Z,91864.56
2022-12-11T00:39:59.755Z,91866.94
2022-12-11T00:42:26.173Z,91869.59
2022-12-11T00:44:53.650Z,91873.66
2022-12-11T00:47:20.149Z,91880.69
2022-12-11T00:49:49.722Z,91879.94
2022-12-11T00:52:17.839Z,91878.91
2022-12-11T00:54:45.235Z,91881.81
2022-12-11T00:57:11.731Z,91896.47
2022-12-11T00:59:38.851Z,91889.72
2022-12-11T01:02:05.655Z,91898.44
2022-12-11T01:04:32.101Z,91903.84
2022-12-11T01:06:58.882Z,91901.03
2022-12-11T01:09:48.581Z,91900.22
2022-12-11T01:12:15.412Z,91909.66
2022-12-11T01:14:41.965Z,91914.78
2022-12-11T01:17:08.911Z,91918.00
2022-12-11T01:19:35.700Z,91912.03
2022-12-11T01:22:02.353Z,91916.25
2022-12-11T01:24:28.850Z,91923.06
2022-12-11T01:26:55.282Z,91924.28
2022-12-11T01:29:21.799Z,91924.47
2022-12-11T01:31:48.243Z,91930.47
2022-12-11T01:34:14.679Z,91919.16
2022-12-11T01:36:41.093Z,91925.78
2022-12-11T01:39:07.549Z,91926.91
2022-12-11T01:41:33.973Z,91917.47
2022-12-11T01:44:28.010Z,91924.81
2022-12-11T01:46:54.530Z,91927.50
2022-12-11T01:49:25.949Z,91930.59
2022-12-11T01:51:58.156Z,91938.34
2022-12-11T01:54:26.982Z,91945.00
2022-12-11T01:56:58.385Z,91946.28
2022-12-11T01:59:27.083Z,91943.66
2022-12-11T02:02:07.694Z,91945.38
2022-12-11T02:04:36.246Z,91950.19
2022-12-11T02:07:03.745Z,91944.34
2022-12-11T02:09:37.288Z,91944.38
2022-12-11T02:12:31.214Z,91946.22
2022-12-11T02:15:20.059Z,91944.13
2022-12-11T02:18:11.223Z,91940.84
2022-12-11T02:20:49.556Z,91945.66
2022-12-11T02:23:43.711Z,91940.59
2022-12-11T02:26:36.523Z,91943.97
2022-12-11T02:29:08.609Z,91946.75
2022-12-11T02:31:50.674Z,91949.53
2022-12-11T02:34:30.701Z,91943.66
2022-12-11T02:37:02.227Z,91942.66
2022-12-11T02:39:30.234Z,91939.50
2022-12-11T02:41:56.867Z,91938.53
2022-12-11T02:44:28.065Z,91942.63
2022-12-11T02:46:55.564Z,91946.34
2022-12-11T02:49:24.214Z,91943.78
2022-12-11T02:51:52.264Z,91944.34
2022-12-11T02:54:25.413Z,91939.59
2022-12-11T02:56:58.895Z,91940.94
2022-12-11T02:59:41.176Z,91942.72
2022-12-11T03:02:08.107Z,91936.34
2022-12-11T03:04:36.392Z,91939.00
2022-12-11T03:07:13.809Z,91940.13
2022-12-11T03:09:44.829Z,91937.22
2022-12-11T03:12:13.703Z,91942.88
2022-12-11T03:14:42.023Z,91945.38
2022-12-11T03:17:14.348Z,91944.16
2022-12-11T03:19:48.298Z,91939.78
2022-12-11T03:22:42.493Z,91946.34
2022-12-11T03:25:16.609Z,91941.78
2022-12-11T03:27:55.441Z,91954.47
2022-12-11T03:30:23.802Z,91945.00
2022-12-11T03:32:50.308Z,91940.84
2022-12-11T03:35:25.485Z,91941.56
2022-12-11T03:37:54.891Z,91937.16
2022-12-11T03:40:23.749Z,91939.38
2022-12-11T03:42:53.487Z,91947.59
2022-12-11T03:45:22.582Z,91948.47
2022-12-11T03:47:51.261Z,91938.84
2022-12-11T03:50:20.355Z,91950.34
2022-12-11T03:52:48.152Z,91955.28
2022-12-11T03:55:16.755Z,91952.09
2022-12-11T03:57:43.587Z,91952.81
2022-12-11T04:00:14.686Z,91948.13
2022-12-11T04:02:42.005Z,91943.19
2022-12-11T04:05:10.214Z,91942.72
2022-12-11T04:07:37.315Z,91941.06
2022-12-11T04:10:05.473Z,91942.03
2022-12-11T04:12:31.904Z,91946.50
2022-12-11T04:15:04.107Z,91953.38
2022-12-11T04:17:51.740Z,91956.44
2022-12-11T04:20:37.032Z,91947.97
2022-12-11T04:23:24.225Z,91955.44
2022-12-11T04:25:51.159Z,91951.66
2022-12-11T04:28:17.614Z,91952.06
2022-12-11T04:30:51.467Z,91953.88
2022-12-11T04:33:17.919Z,91959.44
2022-12-11T04:35:44.564Z,91957.03
2022-12-11T04:38:10.977Z,91948.94
2022-12-11T04:40:37.387Z,91952.50
2022-12-11T04:43:03.855Z,91954.75
2022-12-11T04:45:30.277Z,91950.56
2022-12-11T04:47:56.792Z,91957.59
2022-12-11T04:50:23.267Z,91959.06
2022-12-11T04:52:49.680Z,91960.19
2022-12-11T04:55:16.155Z,91953.19
2022-12-11T04:57:42.619Z,91956.00
2022-12-11T05:00:11.369Z,91942.31
2022-12-11T05:02:39.740Z,91951.97
2022-12-11T05:05:09.929Z,91952.13
2022-12-11T05:07:37.762Z,91949.88
2022-12-11T05:10:05.160Z,91949.97
2022-12-11T05:12:32.521Z,91945.84
2022-12-11T05:14:59.040Z,91947.09
2022-12-11T05:17:25.545Z,91951.34
2022-12-11T05:19:52.236Z,91952.94
2022-12-11T05:22:19.087Z,91943.34
2022-12-11T05:24:45.804Z,91935.97
2022-12-11T05:27:12.327Z,91939.59
2022-12-11T05:29:38.829Z,91935.91
2022-12-11T05:32:05.514Z,91928.09
2022-12-11T05:34:32.851Z,91927.94
2022-12-11T05:36:59.487Z,91926.34
2022-12-11T05:39:25.933Z,91918.50
2022-12-11T05:41:52.352Z,91920.34
2022-12-11T05:44:18.780Z,91912.44
2022-12-11T05:46:45.264Z,91916.38
2022-12-11T05:49:11.906Z,91920.22
2022-12-11T05:51:39.578Z,91916.09
2022-12-11T05:54:06.179Z,91918.03
2022-12-11T05:56:34.920Z,91920.28
2022-12-11T05:59:02.913Z,91924.44
2022-12-11T06:01:32.264Z,91918.66
2022-12-11T06:03:59.116Z,91905.28
2022-12-11T06:06:26.651Z,91903.34
2022-12-11T06:08:54.833Z,91910.72
2022-12-11T06:11:24.311Z,91908.44
2022-12-11T06:13:52.028Z,91910.16
2022-12-11T06:16:19.923Z,91898.75
2022-12-11T06:18:46.532Z,91899.44
2022-12-11T06:21:20.493Z,91908.69
2022-12-11T06:23:48.712Z,91904.03
2022-12-11T06:26:16.577Z,91903.75
2022-12-11T06:28:43.257Z,91903.13
2022-12-11T06:31:09.905Z,91900.22
2022-12-11T06:33:36.449Z,91897.69
2022-12-11T06:36:08.781Z,91905.31
2022-12-11T06:38:35.684Z,91902.78
2022-12-11T06:41:04.825Z,91901.25
2022-12-11T06:43:35.911Z,91890.56
2022-12-11T06:46:06.696Z,91895.66
2022-12-11T06:48:33.901Z,91906.56
2022-12-11T06:51:00.336Z,91903.28
2022-12-11T06:53:26.772Z,91898.47
2022-12-11T06:55:53.176Z,91897.50
2022-12-11T06:58:19.647Z,91896.81
2022-12-11T07:00:46.116Z,91897.69
2022-12-11T07:03:13.695Z,91899.63
2022-12-11T07:05:40.156Z,91889.03
2022-12-11T07:08:07.379Z,91894.81
2022-12-11T07:10:34.122Z,91894.34
2022-12-11T07:13:00.544Z,91893.84
2022-12-11T07:15:26.987Z,91904.19
2022-12-11T07:17:53.600Z,91899.09
2022-12-11T07:20:20.036Z,91899.41
2022-12-11T07:22:46.996Z,91904.16
2022-12-11T07:25:14.287Z,91910.50
2022-12-11T07:27:41.593Z,91912.38
2022-12-11T07:30:09.114Z,91909.19
2022-12-11T07:32:35.623Z,91904.72
2022-12-11T07:35:02.184Z,91917.34
2022-12-11T07:37:28.578Z,91918.16
2022-12-11T07:39:55.024Z,91920.53
2022-12-11T07:42:21.480Z,91914.66
2022-12-11T07:44:48.153Z,91915.75
2022-12-11T07:47:15.067Z,91926.75
2022-12-11T07:49:41.592Z,91925.00
2022-12-11T07:52:08.048Z,91933.88
2022-12-11T07:54:34.479Z,91938.97
2022-12-11T07:57:01.585Z,91927.03
2022-12-11T07:59:28.013Z,91928.16
2022-12-11T08:01:54.557Z,91930.22
2022-12-11T08:04:21.041Z,91936.06
2022-12-11T08:06:47.745Z,91939.41
2022-12-11T08:09:21.107Z,91937.31
2022-12-11T08:11:51.851Z,91926.47
2022-12-11T08:14:19.414Z,91931.66
2022-12-11T08:16:46.038Z,91927.75
2022-12-11T08:19:13.168Z,91934.50
2022-12-11T08:21:40.341Z,91922.72
2022-12-11T08:24:07.809Z,91925.25
2022-12-11T08:26:34.272Z,91921.41
2022-12-11T08:29:02.305Z,91926.78
2022-12-11T08:31:29.263Z,91924.25
2022-12-11T08:33:56.891Z,91919.16
2022-12-11T08:36:24.033Z,91919.63
2022-12-11T08:38:51.104Z,91917.34
2022-12-11T08:41:24.125Z,91926.25
2022-12-11T08:43:54.780Z,91921.44
2022-12-11T08:46:23.812Z,91930.56
2022-12-11T08:48:50.932Z,91922.41
2022-12-11T08:51:22.879Z,91919.34
2022-12-11T08:53:50.179Z,91914.25
2022-12-11T08:56:19.157Z,91915.22
2022-12-11T08:58:46.387Z,91913.97
2022-12-11T09:01:15.501Z,91909.75
2022-12-11T09:03:42.342Z,91904.72
2022-12-11T09:06:15.243Z,91907.38
2022-12-11T09:08:47.198Z,91897.03
2022-12-11T09:11:22.715Z,91892.72
2022-12-11T09:13:49.501Z,91896.56
2022-12-11T09:16:18.643Z,91884.47
2022-12-11T09:18:50.266Z,91886.56
2022-12-11T09:21:19.894Z,91888.81
2022-12-11T09:23:46.826Z,91882.19
2022-12-11T09:26:16.621Z,91886.25
2022-12-11T09:28:46.553Z,91882.59
2022-12-11T09:31:16.291Z,91882.75
2022-12-11T09:33:43.138Z,91881.28
2022-12-11T09:36:10.577Z,91871.69
2022-12-11T09:38:37.477Z,91867.22
2022-12-11T09:41:21.923Z,91871.78
2022-12-11T09:44:19.037Z,91873.81
2022-12-11T09:46:47.298Z,91874.47
2022-12-11T09:49:22.989Z,91860.53
2022-12-11T09:52:19.394Z,91859.00
2022-12-11T09:54:55.896Z,91855.53
2022-12-11T09:57:28.214Z,91861.91
2022-12-11T10:00:05.883Z,91851.31
2022-12-11T10:03:09.638Z,91852.13
2022-12-11T10:06:04.474Z,91850.59
2022-12-11T10:09:07.634Z,91836.78
2022-12-11T10:11:39.972Z,91836.78
2022-12-11T10:14:24.742Z,91837.97
2022-12-11T10:16:57.569Z,91836.81
2022-12-11T10:19:30.533Z,91834.22
2022-12-11T10:21:58.520Z,91834.19
2022-12-11T10:25:10.066Z,91817.78
2022-12-11T10:27:34.633Z,91817.09
2022-12-11T10:30:21.351Z,91813.22
2022-12-11T10:33:06.492Z,91809.19
2022-12-11T10:35:41.942Z,91812.69
2022-12-11T10:38:18.411Z,91805.53
2022-12-11T10:40:46.163Z,91803.63
2022-12-11T10:43:12.771Z,91792.88
2022-12-11T10:45:39.324Z,91793.41
2022-12-11T10:48:10.507Z,91791.78
2022-12-11T10:50:37.835Z,91793.25
2022-12-11T10:53:05.469Z,91794.41
2022-12-11T10:55:44.382Z,91789.78
2022-12-11T10:58:24.078Z,91789.13
2022-12-11T11:01:14.663Z,91788.69
2022-12-11T11:03:55.092Z,91790.47
2022-12-11T11:06:23.908Z,91781.09
2022-12-11T11:08:56.232Z,91788.97
2022-12-11T11:11:29.881Z,91781.84
2022-12-11T11:14:15.502Z,91784.13
2022-12-11T11:16:45.393Z,91786.66
2022-12-11T11:19:21.884Z,91784.81
2022-12-11T11:21:52.093Z,91777.09
2022-12-11T11:24:26.780Z,91778.47
2022-12-11T11:27:12.777Z,91773.22
2022-12-11T11:29:41.993Z,91767.16
2022-12-11T11:32:20.190Z,91758.50
2022-12-11T11:34:46.671Z,91767.47
2022-12-11T11:37:32.200Z,91759.28
2022-12-11T11:40:08.238Z,91757.50
2022-12-11T11:43:18.980Z,91753.13
2022-12-11T11:45:45.431Z,91745.72
2022-12-11T11:48:48.339Z,91734.59
2022-12-11T11:51:30.348Z,91738.75
2022-12-11T11:54:01.474Z,91740.63
2022-12-11T11:56:34.973Z,91744.81
2022-12-11T11:59:10.381Z,91738.63
2022-12-11T12:01:37.535Z,91745.13
2022-12-11T12:04:05.009Z,91745.25
2022-12-11T12:06:47.407Z,91745.38
2022-12-11T12:09:30.516Z,91740.97
2022-12-11T12:12:25.675Z,91740.88
2022-12-11T12:14:55.004Z,91740.97
2022-12-11T12:17:36.000Z,91737.47
2022-12-11T12:20:17.705Z,91744.19
2022-12-11T12:22:56.509Z,91735.00
2022-12-11T12:25:51.286Z,91730.88
2022-12-11T12:29:06.186Z,91736.09
2022-12-11T12:31:35.725Z,91739.50
2022-12-11T12:34:38.779Z,91742.25
2022-12-11T12:37:05.160Z,91738.88
2022-12-11T12:39:47.337Z,91731.25
2022-12-11T12:42:26.920Z,91731.69
2022-12-11T12:45:26.372Z,91734.41
2022-12-11T12:47:53.640Z,91735.22
2022-12-11T12:50:23.116Z,91738.00
2022-12-11T12:52:51.767Z,91745.00
2022-12-11T12:55:24.692Z,91740.72
2022-12-11T12:58:07.330Z,91740.56
2022-12-11T13:00:38.697Z,91750.56
2022-12-11T13:03:32.923Z,91744.81
2022-12-11T13:06:02.574Z,91747.19
2022-12-11T13:08:37.810Z,91750.00
2022-12-11T13:11:08.264Z,91738.53
2022-12-11T13:13:41.708Z,91746.94
2022-12-11T13:16:16.997Z,91741.34
2022-12-11T13:18:47.365Z,91734.63
2022-12-11T13:21:34.089Z,91740.78
2022-12-11T13:24:26.024Z,91738.63
2022-12-11T13:26:52.436Z,91736.25
2022-12-11T13:29:37.764Z,91744.06
2022-12-11T13:32:11.291Z,91745.28
2022-12-11T13:34:40.948Z,91751.25
2022-12-11T13:37:24.440Z,91750.53
2022-12-11T13:39:51.771Z,91742.47
2022-12-11T13:42:33.277Z,91753.66
2022-12-11T13:45:01.036Z,91757.31
2022-12-11T13:47:29.001Z,91754.97
2022-12-11T13:50:02.026Z,91750.69
2022-12-11T13:52:28.726Z,91752.75
2022-12-11T13:54:56.309Z,91752.25
2022-12-11T13:57:30.309Z,91751.31
2022-12-11T13:59:58.113Z,91752.09
2022-12-11T14:02:32.489Z,91753.38
2022-12-11T14:05:08.275Z,91756.59
2022-12-11T14:07:40.517Z,91748.66
2022-12-11T14:10:19.509Z,91751.25
2022-12-11T14:13:01.879Z,91752.16
2022-12-11T14:15:29.925Z,91748.09
2022-12-11T14:17:58.088Z,91756.03
2022-12-11T14:20:33.721Z,91758.22
2022-12-11T14:23:20.522Z,91762.66
2022-12-11T14:25:55.611Z,91767.44
2022-12-11T14:28:27.314Z,91764.66
2022-12-11T14:30:59.587Z,91768.38
2022-12-11T14:33:32.344Z,91772.91
2022-12-11T14:35:59.155Z,91773.09
2022-12-11T14:38:26.010Z,91774.38
2022-12-11T14:40:58.910Z,91782.88
2022-12-11T14:43:40.135Z,91786.84
2022-12-11T14:46:17.351Z,91782.69
2022-12-11T14:48:57.503Z,91784.25
2022-12-11T14:51:31.273Z,91785.47
2022-12-11T14:53:58.179Z,91788.53
2022-12-11T14:56:27.367Z,91794.81
2022-12-11T14:59:06.313Z,91796.38
2022-12-11T15:01:35.222Z,91790.84
2022-12-11T15:04:21.981Z,91801.72
2022-12-11T15:06:50.331Z,91796.00
2022-12-11T15:09:29.932Z,91801.63
2022-12-11T15:12:06.965Z,91798.09
2022-12-11T15:14:33.803Z,91795.94
2022-12-11T15:17:00.456Z,91795.94
2022-12-11T15:19:31.462Z,91792.63
2022-12-11T15:22:05.894Z,91794.41
2022-12-11T15:24:39.966Z,91788.88
2022-12-11T15:27:13.837Z,91786.59
2022-12-11T15:29:40.360Z,91800.16
2022-12-11T15:32:09.477Z,91789.31
2022-12-11T15:34:42.111Z,91795.31
2022-12-11T15:37:22.466Z,91793.38
2022-12-11T15:39:49.147Z,91790.22
2022-12-11T15:42:23.044Z,91789.84
2022-12-11T15:44:49.599Z,91793.59
2022-12-11T15:47:21.285Z,91792.38
2022-12-11T15:49:47.707Z,91796.19
2022-12-11T15:52:14.120Z,91793.25
2022-12-11T15:54:40.536Z,91793.09
2022-12-11T15:57:16.561Z,91790.91
2022-12-11T15:59:44.187Z,91787.94
2022-12-11T16:02:13.848Z,91790.69
2022-12-11T16:04:41.067Z,91796.41
2022-12-11T16:07:23.598Z,91787.00
2022-12-11T16:09:50.440Z,91799.44
2022-12-11T16:12:17.008Z,91797.09
2022-12-11T16:14:45.156Z,91799.66
2022-12-11T16:17:13.607Z,91794.38
2022-12-11T16:19:42.006Z,91799.53
2022-12-11T16:22:09.084Z,91798.38
2022-12-11T16:24:36.053Z,91798.78
2022-12-11T16:27:03.748Z,91798.41
2022-12-11T16:29:34.342Z,91794.84
2022-12-11T16:32:00.932Z,91792.88
2022-12-11T16:34:28.120Z,91792.09
2022-12-11T16:36:57.984Z,91797.66
2022-12-11T16:39:24.592Z,91795.28
2022-12-11T16:41:51.162Z,91787.59
2022-12-11T16:44:23.068Z,91790.38
2022-12-11T16:46:49.654Z,91794.94
2022-12-11T16:49:18.543Z,91788.22
2022-12-11T16:51:45.314Z,91795.53
2022-12-11T16:54:12.243Z,91795.56
2022-12-11T16:56:39.185Z,91796.94
2022-12-11T16:59:06.218Z,91797.69
2022-12-11T17:01:33.427Z,91797.50
2022-12-11T17:04:00.235Z,91804.41
2022-12-11T17:06:26.886Z,91794.16
2022-12-11T17:08:53.686Z,91807.53
2022-12-11T17:11:23.322Z,91797.28
2022-12-11T17:13:57.841Z,91796.06
2022-12-11T17:16:26.476Z,91792.91
2022-12-11T17:18:53.587Z,91792.69
2022-12-11T17:21:21.237Z,91790.91
2022-12-11T17:23:48.748Z,91793.47
2022-12-11T17:26:16.564Z,91792.28
2022-12-11T17:28:43.698Z,91790.06
2022-12-11T17:31:16.099Z,91789.28
2022-12-11T17:33:44.117Z,91784.31
2022-12-11T17:36:13.651Z,91785.69
2022-12-11T17:38:40.506Z,91785.50
2022-12-11T17:41:08.963Z,91783.84
2022-12-11T17:43:36.036Z,91786.97
2022-12-11T17:46:03.177Z,91787.91
2022-12-11T17:48:29.900Z,91786.94
2022-12-11T17:50:56.667Z,91784.91
2022-12-11T17:53:23.404Z,91787.41
2022-12-11T17:55:51.848Z,91786.59
2022-12-11T17:58:22.198Z,91782.22
2022-12-11T18:00:52.149Z,91796.31
2022-12-11T18:03:19.103Z,91792.09
2022-12-11T18:05:51.572Z,91789.66
2022-12-11T18:08:21.718Z,91788.44
2022-12-11T18:10:48.518Z,91796.38
2022-12-11T18:13:17.945Z,91793.59
2022-12-11T18:15:44.606Z,91789.59
2022-12-11T18:18:11.295Z,91794.69
2022-12-11T18:20:38.996Z,91793.22
2022-12-11T18:23:05.643Z,91789.09
2022-12-11T18:25:32.924Z,91789.44
2022-12-11T18:28:00.129Z,91790.16
2022-12-11T18:30:26.757Z,91792.41
2022-12-11T18:32:53.478Z,91794.66
2022-12-11T18:35:20.428Z,91798.78
2022-12-11T18:37:47.263Z,91794.25
2022-12-11T18:40:14.006Z,91794.84
2022-12-11T18:42:40.571Z,91796.72
2022-12-11T18:45:07.737Z,91796.56
2022-12-11T18:47:34.332Z,91799.47
2022-12-11T18:50:07.190Z,91802.09
2022-12-11T18:52:34.739Z,91803.09
2022-12-11T18:55:01.524Z,91805.31
2022-12-11T18:57:28.186Z,91806.28
2022-12-11T18:59:54.794Z,91813.56
2022-12-11T19:02:22.135Z,91813.56
2022-12-11T19:04:48.780Z,91804.34
2022-12-11T19:07:15.393Z,91803.91
2022-12-11T19:09:47.537Z,91805.06
2022-12-11T19:12:14.550Z,91814.56
2022-12-11T19:14:41.513Z,91806.44
2022-12-11T19:17:08.126Z,91807.78
2022-12-11T19:19:35.939Z,91811.66
2022-12-11T19:22:02.748Z,91812.78
2022-12-11T19:24:29.726Z,91804.41
2022-12-11T19:26:56.303Z,91816.56
2022-12-11T19:29:26.495Z,91822.16
2022-12-11T19:31:55.106Z,91821.63
2022-12-11T19:34:23.108Z,91828.81
2022-12-11T19:36:49.765Z,91824.06
2022-12-11T19:39:16.558Z,91823.72
2022-12-11T19:41:43.727Z,91826.44
2022-12-11T19:44:10.155Z,91826.00
2022-12-11T19:46:36.824Z,91828.25
2022-12-11T19:49:03.909Z,91819.88
2022-12-11T19:51:38.529Z,91820.69
2022-12-11T19:54:07.494Z,91824.38
2022-12-11T19:56:34.538Z,91814.25
2022-12-11T19:59:06.374Z,91818.88
2022-12-11T20:01:34.915Z,91810.97
2022-12-11T20:04:04.692Z,91818.63
2022-12-11T20:06:33.230Z,91813.25
2022-12-11T20:09:01.169Z,91810.41
2022-12-11T20:11:27.829Z,91822.25
2022-12-11T20:13:57.110Z,91821.34
2022-12-11T20:16:45.890Z,91817.22
2022-12-11T20:19:10.588Z,91821.53
2022-12-11T20:21:37.072Z,91816.94
2022-12-11T20:24:03.631Z,91819.97
2022-12-11T20:26:32.427Z,91825.59
2022-12-11T20:28:58.949Z,91822.06
2022-12-11T20:31:27.362Z,91822.06
2022-12-11T20:33:56.009Z,91826.81
2022-12-11T20:36:24.821Z,91824.97
2022-12-11T20:38:51.638Z,91823.06
2022-12-11T20:41:22.451Z,91829.13
2022-12-11T20:43:49.190Z,91833.94
2022-12-11T20:46:17.149Z,91826.28
2022-12-11T20:48:44.628Z,91832.34
2022-12-11T20:51:13.080Z,91833.03
2022-12-11T20:53:41.188Z,91828.91
2022-12-11T20:56:19.113Z,91832.41
2022-12-11T20:58:46.520Z,91833.72
2022-12-11T21:01:18.072Z,91829.59
2022-12-11T21:03:45.097Z,91826.09
2022-12-11T21:06:25.313Z,91825.63
2022-12-11T21:08:53.124Z,91821.63
2022-12-11T21:11:19.752Z,91827.53
2022-12-11T21:13:50.547Z,91822.78
2022-12-11T21:16:17.932Z,91829.03
2022-12-11T21:18:46.400Z,91823.63
2022-12-11T21:21:13.789Z,91830.19
2022-12-11T21:23:40.445Z,91824.28
2022-12-11T21:26:07.028Z,91829.69
2022-12-11T21:28:35.646Z,91829.69
2022-12-11T21:31:06.796Z,91826.88
2022-12-11T21:33:34.122Z,91820.06
2022-12-11T21:36:01.476Z,91829.13
2022-12-11T21:38:28.821Z,91825.94
2022-12-11T21:40:56.083Z,91831.50
2022-12-11T21:43:22.903Z,91821.97
2022-12-11T21:46:01.170Z,91825.94
2022-12-11T21:48:28.117Z,91832.75
2022-12-11T21:50:54.726Z,91825.34
2022-12-11T21:53:21.187Z,91825.81
2022-12-11T21:55:47.610Z,91825.69
2022-12-11T21:58:14.025Z,91822.50
2022-12-11T22:00:40.459Z,91819.63
2022-12-11T22:03:06.999Z,91832.66
2022-12-11T22:05:33.456Z,91833.63
2022-12-11T22:08:00.011Z,91829.19
2022-12-11T22:10:28.204Z,91829.19
2022-12-11T22:12:54.751Z,91821.72
2022-12-11T22:15:21.277Z,91828.38
2022-12-11T22:17:47.705Z,91824.44
2022-12-11T22:20:14.547Z,91816.97
2022-12-11T22:22:41.045Z,91825.06
2022-12-11T22:25:07.871Z,91827.13
2022-12-11T22:27:34.651Z,91826.34
2022-12-11T22:30:01.079Z,91828.88
2022-12-11T22:32:27.717Z,91828.53
2022-12-11T22:34:56.207Z,91827.28
2022-12-11T22:37:22.828Z,91820.03
2022-12-11T22:39:49.783Z,91827.63
2022-12-11T22:42:16.322Z,91823.78
2022-12-11T22:44:42.794Z,91824.16
2022-12-11T22:47:09.275Z,91820.66
2022-12-11T22:49:35.861Z,91824.59
2022-12-11T22:52:02.275Z,91822.84
2022-12-11T22:54:28.757Z,91820.16
2022-12-11T22:56:55.186Z,91818.91
2022-12-11T22:59:21.653Z,91811.78
2022-12-11T23:01:48.571Z,91814.00
2022-12-11T23:04:14.993Z,91824.75
2022-12-11T23:06:41.551Z,91820.66
2022-12-11T23:09:08.106Z,91815.88
2022-12-11T23:11:37.710Z,91823.78
2022-12-11T23:14:05.759Z,91824.59
2022-12-11T23:16:32.369Z,91822.22
2022-12-11T23:18:59.033Z,91819.66
2022-12-11T23:21:27.245Z,91818.88
2022-12-11T23:23:54.635Z,91822.53
2022-12-11T23:26:22.689Z,91816.50
2022-12-11T23:28:49.458Z,91821.75
2022-12-11T23:31:17.645Z,91820.63
2022-12-11T23:33:44.745Z,91822.19
2022-12-11T23:36:11.745Z,91818.88
2022-12-11T23:38:39.569Z,91825.38
2022-12-11T23:41:07.469Z,91827.91
2022-12-11T23:43:35.533Z,91829.00
2022-12-11T23:46:04.105Z,91826.97
2022-12-11T23:48:31.229Z,91830.13
2022-12-11T23:51:02.251Z,91825.38
2022-12-11T23:53:28.883Z,91827.56
2022-12-11T23:55:55.495Z,91829.47
2022-12-11T23:58:22.041Z,91833.09
